sensor_id;sensor_type;location;lat;lon;timestamp;P1;durP1;ratioP1;P2;durP2;ratioP2
24443;SDS011;13346;50.984;5.822;2023-05-19T00:01:26;4.70;;;3.73;;
24443;SDS011;13346;50.984;5.822;2023-05-19T00:03:55;8.33;;;3.23;;
24443;SDS011;13346;50.984;5.822;2023-05-19T00:06:28;3.37;;;3.07;;
24443;SDS011;13346;50.984;5.822;2023-05-19T00:08:57;3.50;;;2.80;;
24443;SDS011;13346;50.984;5.822;2023-05-19T00:11:26;8.43;;;4.13;;
24443;SDS011;13346;50.984;5.822;2023-05-19T00:13:54;6.60;;;3.43;;
24443;SDS011;13346;50.984;5.822;2023-05-19T00:16:23;3.40;;;3.10;;
24443;SDS011;13346;50.984;5.822;2023-05-19T00:18:51;5.43;;;3.80;;
24443;SDS011;13346;50.984;5.822;2023-05-19T00:21:18;5.43;;;3.43;;
24443;SDS011;13346;50.984;5.822;2023-05-19T00:23:47;4.83;;;4.30;;
24443;SDS011;13346;50.984;5.822;2023-05-19T00:26:14;7.63;;;3.73;;
24443;SDS011;13346;50.984;5.822;2023-05-19T00:28:41;3.90;;;3.50;;
24443;SDS011;13346;50.984;5.822;2023-05-19T00:31:09;4.20;;;3.30;;
24443;SDS011;13346;50.984;5.822;2023-05-19T00:33:36;4.73;;;3.67;;
24443;SDS011;13346;50.984;5.822;2023-05-19T00:36:03;6.93;;;3.57;;
24443;SDS011;13346;50.984;5.822;2023-05-19T00:38:30;4.03;;;3.60;;
24443;SDS011;13346;50.984;5.822;2023-05-19T00:41:01;4.80;;;4.10;;
24443;SDS011;13346;50.984;5.822;2023-05-19T00:43:29;4.70;;;3.77;;
24443;SDS011;13346;50.984;5.822;2023-05-19T00:45:58;4.83;;;3.30;;
24443;SDS011;13346;50.984;5.822;2023-05-19T00:48:25;4.67;;;4.27;;
24443;SDS011;13346;50.984;5.822;2023-05-19T00:50:53;5.30;;;3.73;;
24443;SDS011;13346;50.984;5.822;2023-05-19T00:53:26;4.50;;;3.93;;
24443;SDS011;13346;50.984;5.822;2023-05-19T00:55:53;7.20;;;3.97;;
24443;SDS011;13346;50.984;5.822;2023-05-19T00:58:22;9.60;;;4.23;;
24443;SDS011;13346;50.984;5.822;2023-05-19T01:00:53;8.13;;;4.13;;
24443;SDS011;13346;50.984;5.822;2023-05-19T01:03:27;7.73;;;4.37;;
24443;SDS011;13346;50.984;5.822;2023-05-19T01:05:58;5.10;;;3.73;;
24443;SDS011;13346;50.984;5.822;2023-05-19T01:08:29;8.67;;;3.80;;
24443;SDS011;13346;50.984;5.822;2023-05-19T01:10:57;5.90;;;4.70;;
24443;SDS011;13346;50.984;5.822;2023-05-19T01:13:26;5.97;;;4.47;;
24443;SDS011;13346;50.984;5.822;2023-05-19T01:15:59;7.80;;;4.90;;
24443;SDS011;13346;50.984;5.822;2023-05-19T01:18:42;7.07;;;4.60;;
24443;SDS011;13346;50.984;5.822;2023-05-19T01:21:21;5.77;;;3.67;;
24443;SDS011;13346;50.984;5.822;2023-05-19T01:24:07;5.87;;;4.13;;
24443;SDS011;13346;50.984;5.822;2023-05-19T01:27:08;8.60;;;3.97;;
24443;SDS011;13346;50.984;5.822;2023-05-19T01:32:40;4.90;;;4.33;;
24443;SDS011;13346;50.984;5.822;2023-05-19T01:35:09;6.57;;;4.60;;
24443;SDS011;13346;50.984;5.822;2023-05-19T01:37:40;11.90;;;4.43;;
24443;SDS011;13346;50.984;5.822;2023-05-19T01:40:09;4.77;;;4.23;;
24443;SDS011;13346;50.984;5.822;2023-05-19T01:42:37;7.83;;;4.97;;
24443;SDS011;13346;50.984;5.822;2023-05-19T01:45:06;6.83;;;5.10;;
24443;SDS011;13346;50.984;5.822;2023-05-19T01:47:42;8.87;;;5.00;;
24443;SDS011;13346;50.984;5.822;2023-05-19T01:50:11;6.57;;;4.67;;
24443;SDS011;13346;50.984;5.822;2023-05-19T01:52:38;14.03;;;6.47;;
24443;SDS011;13346;50.984;5.822;2023-05-19T01:55:06;9.37;;;5.30;;
24443;SDS011;13346;50.984;5.822;2023-05-19T01:57:36;6.67;;;4.53;;
24443;SDS011;13346;50.984;5.822;2023-05-19T02:00:15;6.00;;;5.03;;
24443;SDS011;13346;50.984;5.822;2023-05-19T02:02:54;5.37;;;4.87;;
24443;SDS011;13346;50.984;5.822;2023-05-19T02:05:32;9.00;;;4.80;;
24443;SDS011;13346;50.984;5.822;2023-05-19T02:08:08;5.67;;;4.60;;
24443;SDS011;13346;50.984;5.822;2023-05-19T02:10:40;7.07;;;6.37;;
24443;SDS011;13346;50.984;5.822;2023-05-19T02:13:12;8.03;;;4.73;;
24443;SDS011;13346;50.984;5.822;2023-05-19T02:15:45;6.13;;;4.73;;
24443;SDS011;13346;50.984;5.822;2023-05-19T02:18:15;7.23;;;5.03;;
24443;SDS011;13346;50.984;5.822;2023-05-19T02:20:44;8.77;;;5.00;;
24443;SDS011;13346;50.984;5.822;2023-05-19T02:23:12;9.83;;;6.40;;
24443;SDS011;13346;50.984;5.822;2023-05-19T02:25:39;6.03;;;5.03;;
24443;SDS011;13346;50.984;5.822;2023-05-19T02:28:07;7.23;;;5.40;;
24443;SDS011;13346;50.984;5.822;2023-05-19T02:30:34;12.40;;;6.10;;
24443;SDS011;13346;50.984;5.822;2023-05-19T02:33:01;9.17;;;5.90;;
24443;SDS011;13346;50.984;5.822;2023-05-19T02:35:31;6.33;;;5.13;;
24443;SDS011;13346;50.984;5.822;2023-05-19T02:37:58;5.37;;;4.97;;
24443;SDS011;13346;50.984;5.822;2023-05-19T02:40:26;7.50;;;5.67;;
24443;SDS011;13346;50.984;5.822;2023-05-19T02:42:53;6.27;;;5.53;;
24443;SDS011;13346;50.984;5.822;2023-05-19T02:45:20;11.53;;;5.67;;
24443;SDS011;13346;50.984;5.822;2023-05-19T02:47:47;8.27;;;5.03;;
24443;SDS011;13346;50.984;5.822;2023-05-19T02:50:14;5.23;;;4.63;;
24443;SDS011;13346;50.984;5.822;2023-05-19T02:52:43;6.57;;;5.60;;
24443;SDS011;13346;50.984;5.822;2023-05-19T02:55:10;5.57;;;5.07;;
24443;SDS011;13346;50.984;5.822;2023-05-19T02:57:41;6.07;;;5.50;;
24443;SDS011;13346;50.984;5.822;2023-05-19T03:00:08;6.53;;;5.83;;
24443;SDS011;13346;50.984;5.822;2023-05-19T03:02:36;7.30;;;5.10;;
24443;SDS011;13346;50.984;5.822;2023-05-19T03:05:04;7.27;;;5.20;;
24443;SDS011;13346;50.984;5.822;2023-05-19T03:07:32;8.37;;;6.03;;
